sensor_id;sensor_type;location;lat;lon;timestamp;P1;durP1;ratioP1;P2;durP2;ratioP2
9459;SDS011;4768;42.664;23.240;2022-08-04T00:01:44;4.83;;;4.43;;
9459;SDS011;4768;42.664;23.240;2022-08-04T00:04:16;6.10;;;5.47;;
9459;SDS011;4768;42.664;23.240;2022-08-04T00:06:54;5.57;;;5.07;;
9459;SDS011;4768;42.664;23.240;2022-08-04T00:09:29;8.17;;;5.70;;
9459;SDS011;4768;42.664;23.240;2022-08-04T00:12:04;5.93;;;4.80;;
9459;SDS011;4768;42.664;23.240;2022-08-04T00:14:33;6.43;;;5.07;;
9459;SDS011;4768;42.664;23.240;2022-08-04T00:17:02;6.73;;;5.50;;
9459;SDS011;4768;42.664;23.240;2022-08-04T00:19:31;4.50;;;4.10;;
9459;SDS011;4768;42.664;23.240;2022-08-04T00:22:02;5.47;;;4.97;;
9459;SDS011;4768;42.664;23.240;2022-08-04T00:24:30;4.07;;;3.77;;
9459;SDS011;4768;42.664;23.240;2022-08-04T00:26:57;4.70;;;4.23;;
9459;SDS011;4768;42.664;23.240;2022-08-04T00:29:25;6.73;;;4.43;;
9459;SDS011;4768;42.664;23.240;2022-08-04T00:31:52;5.10;;;4.53;;
9459;SDS011;4768;42.664;23.240;2022-08-04T00:34:21;6.03;;;4.90;;
9459;SDS011;4768;42.664;23.240;2022-08-04T00:36:49;4.80;;;4.23;;
9459;SDS011;4768;42.664;23.240;2022-08-04T00:39:18;5.73;;;4.13;;
9459;SDS011;4768;42.664;23.240;2022-08-04T00:41:49;4.33;;;3.93;;
9459;SDS011;4768;42.664;23.240;2022-08-04T00:44:32;6.27;;;4.50;;
9459;SDS011;4768;42.664;23.240;2022-08-04T00:47:16;4.03;;;3.67;;
9459;SDS011;4768;42.664;23.240;2022-08-04T00:50:01;4.90;;;4.40;;
9459;SDS011;4768;42.664;23.240;2022-08-04T00:52:36;5.93;;;4.30;;
9459;SDS011;4768;42.664;23.240;2022-08-04T00:55:22;4.67;;;3.80;;
9459;SDS011;4768;42.664;23.240;2022-08-04T00:58:26;4.70;;;4.10;;
9459;SDS011;4768;42.664;23.240;2022-08-04T01:01:01;5.03;;;3.63;;
9459;SDS011;4768;42.664;23.240;2022-08-04T01:03:33;3.37;;;3.13;;
9459;SDS011;4768;42.664;23.240;2022-08-04T01:06:16;4.00;;;3.43;;
9459;SDS011;4768;42.664;23.240;2022-08-04T01:08:54;3.93;;;3.63;;
9459;SDS011;4768;42.664;23.240;2022-08-04T01:11:36;3.73;;;3.23;;
9459;SDS011;4768;42.664;23.240;2022-08-04T01:17:25;3.60;;;3.30;;
9459;SDS011;4768;42.664;23.240;2022-08-04T01:19:59;4.77;;;3.10;;
9459;SDS011;4768;42.664;23.240;2022-08-04T01:26:01;3.77;;;3.43;;
9459;SDS011;4768;42.664;23.240;2022-08-04T01:29:07;3.63;;;3.33;;
9459;SDS011;4768;42.664;23.240;2022-08-04T01:31:41;3.90;;;3.60;;
9459;SDS011;4768;42.664;23.240;2022-08-04T01:34:15;3.13;;;2.83;;
9459;SDS011;4768;42.664;23.240;2022-08-04T01:36:45;4.07;;;3.20;;
9459;SDS011;4768;42.664;23.240;2022-08-04T01:39:16;3.33;;;3.03;;
9459;SDS011;4768;42.664;23.240;2022-08-04T01:42:03;3.70;;;3.40;;
9459;SDS011;4768;42.664;23.240;2022-08-04T01:44:32;6.33;;;3.83;;
9459;SDS011;4768;42.664;23.240;2022-08-04T01:47:01;4.10;;;3.70;;
9459;SDS011;4768;42.664;23.240;2022-08-04T01:49:30;4.27;;;3.87;;
9459;SDS011;4768;42.664;23.240;2022-08-04T01:51:57;4.50;;;4.10;;
9459;SDS011;4768;42.664;23.240;2022-08-04T01:54:25;4.57;;;4.03;;
9459;SDS011;4768;42.664;23.240;2022-08-04T01:56:52;5.40;;;3.97;;
9459;SDS011;4768;42.664;23.240;2022-08-04T01:59:20;4.23;;;3.83;;
9459;SDS011;4768;42.664;23.240;2022-08-04T02:01:49;4.40;;;3.83;;
9459;SDS011;4768;42.664;23.240;2022-08-04T02:04:17;4.37;;;3.77;;
9459;SDS011;4768;42.664;23.240;2022-08-04T02:06:48;8.50;;;4.10;;
9459;SDS011;4768;42.664;23.240;2022-08-04T02:09:26;5.43;;;4.30;;
9459;SDS011;4768;42.664;23.240;2022-08-04T02:12:03;4.87;;;3.87;;
9459;SDS011;4768;42.664;23.240;2022-08-04T02:14:36;3.90;;;3.50;;
9459;SDS011;4768;42.664;23.240;2022-08-04T02:17:12;4.90;;;4.00;;
9459;SDS011;4768;42.664;23.240;2022-08-04T02:19:44;5.17;;;3.97;;
9459;SDS011;4768;42.664;23.240;2022-08-04T02:22:22;4.80;;;3.50;;
9459;SDS011;4768;42.664;23.240;2022-08-04T02:24:55;4.00;;;3.60;;
9459;SDS011;4768;42.664;23.240;2022-08-04T02:27:27;4.10;;;3.70;;
9459;SDS011;4768;42.664;23.240;2022-08-04T02:29:58;7.53;;;4.07;;
9459;SDS011;4768;42.664;23.240;2022-08-04T02:32:31;5.23;;;3.80;;
9459;SDS011;4768;42.664;23.240;2022-08-04T02:35:05;4.00;;;3.67;;
9459;SDS011;4768;42.664;23.240;2022-08-04T02:37:33;6.53;;;4.23;;
9459;SDS011;4768;42.664;23.240;2022-08-04T02:40:02;4.70;;;4.30;;
9459;SDS011;4768;42.664;23.240;2022-08-04T02:42:32;7.07;;;4.70;;
9459;SDS011;4768;42.664;23.240;2022-08-04T02:44:59;4.87;;;4.30;;
9459;SDS011;4768;42.664;23.240;2022-08-04T02:47:27;8.10;;;4.83;;
9459;SDS011;4768;42.664;23.240;2022-08-04T02:49:57;5.97;;;4.30;;
9459;SDS011;4768;42.664;23.240;2022-08-04T02:52:24;6.63;;;4.70;;
9459;SDS011;4768;42.664;23.240;2022-08-04T02:54:52;5.77;;;4.30;;
9459;SDS011;4768;42.664;23.240;2022-08-04T02:57:20;6.17;;;4.50;;
9459;SDS011;4768;42.664;23.240;2022-08-04T02:59:53;6.80;;;4.77;;
9459;SDS011;4768;42.664;23.240;2022-08-04T03:02:33;6.00;;;4.40;;
9459;SDS011;4768;42.664;23.240;2022-08-04T03:05:15;4.77;;;4.37;;
9459;SDS011;4768;42.664;23.240;2022-08-04T03:08:11;5.30;;;4.37;;
9459;SDS011;4768;42.664;23.240;2022-08-04T03:11:09;5.23;;;4.50;;
9459;SDS011;4768;42.664;23.240;2022-08-04T03:14:04;4.77;;;4.27;;
9459;SDS011;4768;42.664;23.240;2022-08-04T03:16:57;4.87;;;4.40;;
9459;SDS011;4768;42.664;23.240;2022-08-04T03:19:52;4.50;;;4.10;;
9459;SDS011;4768;42.664;23.240;2022-08-04T03:22:47;6.07;;;5.20;;
9459;SDS011;4768;42.664;23.240;2022-08-04T03:28:40;6.20;;;5.20;;
9459;SDS011;4768;42.664;23.240;2022-08-04T03:31:32;5.77;;;4.43;;
9459;SDS011;4768;42.664;23.240;2022-08-04T03:34:18;7.97;;;4.93;;
9459;SDS011;4768;42.664;23.240;2022-08-04T03:37:00;6.10;;;4.63;;
9459;SDS011;4768;42.664;23.240;2022-08-04T03:48:52;5.80;;;5.20;;
9459;SDS011;4768;42.664;23.240;2022-08-04T03:51:37;6.23;;;4.97;;
9459;SDS011;4768;42.664;23.240;2022-08-04T03:57:51;5.20;;;4.70;;
9459;SDS011;4768;42.664;23.240;2022-08-04T04:00:33;5.20;;;4.73;;
9459;SDS011;4768;42.664;23.240;2022-08-04T04:03:19;5.73;;;4.70;;
9459;SDS011;4768;42.664;23.240;2022-08-04T04:06:13;5.23;;;4.73;;
9459;SDS011;4768;42.664;23.240;2022-08-04T04:14:59;4.73;;;4.33;;
9459;SDS011;4768;42.664;23.240;2022-08-04T04:17:44;5.83;;;4.20;;
9459;SDS011;4768;42.664;23.240;2022-08-04T04:20:27;5.17;;;4.67;;
9459;SDS011;4768;42.664;23.240;2022-08-04T04:23:13;5.30;;;4.47;;
9459;SDS011;4768;42.664;23.240;2022-08-04T04:25:54;8.53;;;5.27;;
9459;SDS011;4768;42.664;23.240;2022-08-04T04:28:46;6.23;;;5.50;;
9459;SDS011;4768;42.664;23.240;2022-08-04T04:31:32;6.63;;;4.70;;
9459;SDS011;4768;42.664;23.240;2022-08-04T04:34:29;11.10;;;5.53;;
9459;SDS011;4768;42.664;23.240;2022-08-04T04:37:11;5.33;;;4.67;;
9459;SDS011;4768;42.664;23.240;2022-08-04T04:39:50;5.80;;;4.57;;
9459;SDS011;4768;42.664;23.240;2022-08-04T04:42:33;6.13;;;4.20;;
9459;SDS011;4768;42.664;23.240;2022-08-04T04:45:17;5.20;;;4.70;;
9459;SDS011;4768;42.664;23.240;2022-08-04T04:47:54;7.40;;;4.73;;
9459;SDS011;4768;42.664;23.240;2022-08-04T04:50:27;7.10;;;5.20;;
9459;SDS011;4768;42.664;23.240;2022-08-04T04:53:05;8.47;;;4.83;;
9459;SDS011;4768;42.664;23.240;2022-08-04T04:55:39;6.83;;;5.83;;
9459;SDS011;4768;42.664;23.240;2022-08-04T04:58:11;7.33;;;5.30;;
9459;SDS011;4768;42.664;23.240;2022-08-04T05:00:46;5.70;;;5.10;;
9459;SDS011;4768;42.664;23.240;2022-08-04T05:03:29;7.07;;;5.50;;
9459;SDS011;4768;42.664;23.240;2022-08-04T05:06:10;6.57;;;5.70;;
9459;SDS011;4768;42.664;23.240;2022-08-04T05:08:52;6.30;;;5.70;;
9459;SDS011;4768;42.664;23.240;2022-08-04T05:11:52;9.77;;;6.30;;
9459;SDS011;4768;42.664;23.240;2022-08-04T05:14:49;5.97;;;5.43;;
9459;SDS011;4768;42.664;23.240;2022-08-04T05:17:19;6.07;;;5.43;;
9459;SDS011;4768;42.664;23.240;2022-08-04T05:19:52;6.17;;;5.57;;
9459;SDS011;4768;42.664;23.240;2022-08-04T05:22:28;10.70;;;5.87;;
9459;SDS011;4768;42.664;23.240;2022-08-04T05:25:11;12.43;;;5.57;;
9459;SDS011;4768;42.664;23.240;2022-08-04T05:27:44;6.40;;;5.60;;
9459;SDS011;4768;42.664;23.240;2022-08-04T05:30:15;9.80;;;5.60;;
9459;SDS011;4768;42.664;23.240;2022-08-04T05:32:45;10.77;;;5.57;;
9459;SDS011;4768;42.664;23.240;2022-08-04T05:35:19;9.27;;;6.77;;
9459;SDS011;4768;42.664;23.240;2022-08-04T05:37:52;9.83;;;6.40;;
9459;SDS011;4768;42.664;23.240;2022-08-04T05:40:23;10.57;;;6.93;;
9459;SDS011;4768;42.664;23.240;2022-08-04T05:42:51;12.40;;;6.63;;
9459;SDS011;4768;42.664;23.240;2022-08-04T05:45:20;8.10;;;6.50;;
9459;SDS011;4768;42.664;23.240;2022-08-04T05:47:48;12.00;;;6.27;;
9459;SDS011;4768;42.664;23.240;2022-08-04T05:50:16;12.77;;;6.60;;
9459;SDS011;4768;42.664;23.240;2022-08-04T05:52:44;11.93;;;7.70;;
9459;SDS011;4768;42.664;23.240;2022-08-04T05:55:12;17.37;;;7.50;;
9459;SDS011;4768;42.664;23.240;2022-08-04T05:57:40;14.67;;;7.50;;
9459;SDS011;4768;42.664;23.240;2022-08-04T06:00:10;16.07;;;7.10;;
9459;SDS011;4768;42.664;23.240;2022-08-04T06:02:37;11.77;;;7.43;;
9459;SDS011;4768;42.664;23.240;2022-08-04T06:05:05;11.37;;;7.07;;
9459;SDS011;4768;42.664;23.240;2022-08-04T06:07:34;10.40;;;7.30;;
9459;SDS011;4768;42.664;23.240;2022-08-04T06:10:01;16.60;;;6.67;;
9459;SDS011;4768;42.664;23.240;2022-08-04T06:12:29;14.00;;;6.90;;
9459;SDS011;4768;42.664;23.240;2022-08-04T06:15:03;8.03;;;6.67;;
9459;SDS011;4768;42.664;23.240;2022-08-04T06:17:32;7.90;;;6.40;;
9459;SDS011;4768;42.664;23.240;2022-08-04T06:20:04;12.77;;;6.13;;
9459;SDS011;4768;42.664;23.240;2022-08-04T06:22:33;8.40;;;5.82;;
9459;SDS011;4768;42.664;23.240;2022-08-04T06:25:05;7.13;;;5.70;;
9459;SDS011;4768;42.664;23.240;2022-08-04T06:27:34;7.40;;;6.22;;
9459;SDS011;4768;42.664;23.240;2022-08-04T06:30:03;11.20;;;5.50;;
9459;SDS011;4768;42.664;23.240;2022-08-04T06:32:34;8.63;;;6.13;;
9459;SDS011;4768;42.664;23.240;2022-08-04T06:35:12;7.50;;;5.70;;
9459;SDS011;4768;42.664;23.240;2022-08-04T06:37:41;7.00;;;6.27;;
9459;SDS011;4768;42.664;23.240;2022-08-04T06:40:10;9.43;;;5.33;;
9459;SDS011;4768;42.664;23.240;2022-08-04T06:42:38;9.17;;;5.13;;
9459;SDS011;4768;42.664;23.240;2022-08-04T06:45:08;7.07;;;5.20;;
9459;SDS011;4768;42.664;23.240;2022-08-04T06:47:36;6.13;;;5.53;;
9459;SDS011;4768;42.664;23.240;2022-08-04T06:50:05;8.90;;;5.47;;
9459;SDS011;4768;42.664;23.240;2022-08-04T06:52:34;7.40;;;4.93;;
9459;SDS011;4768;42.664;23.240;2022-08-04T06:55:02;6.70;;;5.13;;
9459;SDS011;4768;42.664;23.240;2022-08-04T06:57:29;9.93;;;5.10;;
9459;SDS011;4768;42.664;23.240;2022-08-04T06:59:58;6.50;;;4.57;;
9459;SDS011;4768;42.664;23.240;2022-08-04T07:02:30;6.47;;;4.47;;
9459;SDS011;4768;42.664;23.240;2022-08-04T07:05:00;7.03;;;4.70;;
9459;SDS011;4768;42.664;23.240;2022-08-04T07:07:26;7.77;;;4.50;;
9459;SDS011;4768;42.664;23.240;2022-08-04T07:09:54;5.85;;;4.85;;
9459;SDS011;4768;42.664;23.240;2022-08-04T07:12:21;9.55;;;4.60;;
9459;SDS011;4768;42.664;23.240;2022-08-04T07:14:49;6.38;;;5.13;;
9459;SDS011;4768;42.664;23.240;2022-08-04T07:17:17;5.35;;;4.85;;
9459;SDS011;4768;42.664;23.240;2022-08-04T07:19:48;6.53;;;4.75;;
9459;SDS011;4768;42.664;23.240;2022-08-04T07:22:17;5.60;;;4.97;;
9459;SDS011;4768;42.664;23.240;2022-08-04T07:24:44;8.60;;;5.22;;
9459;SDS011;4768;42.664;23.240;2022-08-04T07:27:11;7.07;;;4.90;;
9459;SDS011;4768;42.664;23.240;2022-08-04T07:29:38;5.97;;;5.05;;
9459;SDS011;4768;42.664;23.240;2022-08-04T07:32:06;8.80;;;5.25;;
9459;SDS011;4768;42.664;23.240;2022-08-04T07:34:35;8.18;;;5.07;;
9459;SDS011;4768;42.664;23.240;2022-08-04T07:37:04;6.63;;;5.40;;
9459;SDS011;4768;42.664;23.240;2022-08-04T07:39:31;5.32;;;4.82;;
9459;SDS011;4768;42.664;23.240;2022-08-04T07:42:00;5.30;;;4.80;;
9459;SDS011;4768;42.664;23.240;2022-08-04T07:44:30;6.85;;;4.63;;
9459;SDS011;4768;42.664;23.240;2022-08-04T07:46:57;6.28;;;5.05;;
9459;SDS011;4768;42.664;23.240;2022-08-04T07:49:25;5.85;;;5.00;;
9459;SDS011;4768;42.664;23.240;2022-08-04T07:51:52;9.07;;;5.40;;
9459;SDS011;4768;42.664;23.240;2022-08-04T07:54:21;10.18;;;4.50;;
9459;SDS011;4768;42.664;23.240;2022-08-04T07:56:48;5.85;;;4.32;;
9459;SDS011;4768;42.664;23.240;2022-08-04T07:59:16;7.68;;;4.63;;
9459;SDS011;4768;42.664;23.240;2022-08-04T08:01:44;5.72;;;5.00;;
9459;SDS011;4768;42.664;23.240;2022-08-04T08:04:12;5.85;;;4.90;;
9459;SDS011;4768;42.664;23.240;2022-08-04T08:06:39;6.15;;;4.38;;
9459;SDS011;4768;42.664;23.240;2022-08-04T08:09:07;12.75;;;4.68;;
9459;SDS011;4768;42.664;23.240;2022-08-04T08:11:37;5.28;;;4.40;;
9459;SDS011;4768;42.664;23.240;2022-08-04T08:14:04;7.10;;;4.68;;
9459;SDS011;4768;42.664;23.240;2022-08-04T08:16:32;5.78;;;4.90;;
9459;SDS011;4768;42.664;23.240;2022-08-04T08:18:59;6.75;;;4.80;;
9459;SDS011;4768;42.664;23.240;2022-08-04T08:21:27;10.50;;;4.75;;
9459;SDS011;4768;42.664;23.240;2022-08-04T08:23:54;9.02;;;4.38;;
9459;SDS011;4768;42.664;23.240;2022-08-04T08:26:21;7.22;;;4.50;;
9459;SDS011;4768;42.664;23.240;2022-08-04T08:28:49;7.35;;;4.38;;
9459;SDS011;4768;42.664;23.240;2022-08-04T08:31:16;8.60;;;4.22;;
9459;SDS011;4768;42.664;23.240;2022-08-04T08:33:43;4.85;;;4.32;;
9459;SDS011;4768;42.664;23.240;2022-08-04T08:36:16;7.28;;;3.72;;
9459;SDS011;4768;42.664;23.240;2022-08-04T08:38:48;5.50;;;3.72;;
9459;SDS011;4768;42.664;23.240;2022-08-04T08:47:28;4.63;;;4.05;;
9459;SDS011;4768;42.664;23.240;2022-08-04T08:53:31;4.10;;;3.20;;
9459;SDS011;4768;42.664;23.240;2022-08-04T08:56:24;3.70;;;3.40;;
9459;SDS011;4768;42.664;23.240;2022-08-04T08:59:00;6.00;;;3.50;;
9459;SDS011;4768;42.664;23.240;2022-08-04T09:01:48;4.07;;;3.33;;
9459;SDS011;4768;42.664;23.240;2022-08-04T09:04:52;4.95;;;3.40;;
9459;SDS011;4768;42.664;23.240;2022-08-04T09:07:46;4.53;;;3.70;;
9459;SDS011;4768;42.664;23.240;2022-08-04T09:10:24;4.25;;;3.17;;
9459;SDS011;4768;42.664;23.240;2022-08-04T09:12:55;3.30;;;3.00;;
9459;SDS011;4768;42.664;23.240;2022-08-04T09:15:29;3.35;;;3.00;;
9459;SDS011;4768;42.664;23.240;2022-08-04T09:18:04;5.30;;;3.72;;
9459;SDS011;4768;42.664;23.240;2022-08-04T09:20:36;5.60;;;3.50;;
9459;SDS011;4768;42.664;23.240;2022-08-04T09:23:17;3.95;;;2.95;;
9459;SDS011;4768;42.664;23.240;2022-08-04T09:25:50;5.75;;;3.20;;
9459;SDS011;4768;42.664;23.240;2022-08-04T09:28:24;4.57;;;3.03;;
9459;SDS011;4768;42.664;23.240;2022-08-04T09:30:54;9.07;;;3.03;;
9459;SDS011;4768;42.664;23.240;2022-08-04T09:33:30;7.38;;;3.33;;
9459;SDS011;4768;42.664;23.240;2022-08-04T09:36:09;3.30;;;2.92;;
9459;SDS011;4768;42.664;23.240;2022-08-04T09:38:43;3.28;;;2.75;;
9459;SDS011;4768;42.664;23.240;2022-08-04T09:41:22;7.28;;;2.92;;
9459;SDS011;4768;42.664;23.240;2022-08-04T09:44:00;5.38;;;2.55;;
9459;SDS011;4768;42.664;23.240;2022-08-04T09:46:41;3.25;;;2.03;;
9459;SDS011;4768;42.664;23.240;2022-08-04T09:49:18;3.47;;;1.70;;
9459;SDS011;4768;42.664;23.240;2022-08-04T09:51:56;2.50;;;2.30;;
9459;SDS011;4768;42.664;23.240;2022-08-04T09:54:33;2.42;;;2.22;;
9459;SDS011;4768;42.664;23.240;2022-08-04T09:57:12;2.92;;;2.40;;
9459;SDS011;4768;42.664;23.240;2022-08-04T09:59:52;3.85;;;2.55;;
9459;SDS011;4768;42.664;23.240;2022-08-04T10:02:26;5.15;;;2.40;;
9459;SDS011;4768;42.664;23.240;2022-08-04T10:04:59;4.90;;;2.10;;
9459;SDS011;4768;42.664;23.240;2022-08-04T10:07:34;2.70;;;2.10;;
9459;SDS011;4768;42.664;23.240;2022-08-04T10:10:18;3.92;;;2.28;;
9459;SDS011;4768;42.664;23.240;2022-08-04T10:13:02;3.58;;;2.70;;
9459;SDS011;4768;42.664;23.240;2022-08-04T10:15:42;3.17;;;2.38;;
9459;SDS011;4768;42.664;23.240;2022-08-04T10:18:16;2.38;;;2.17;;
9459;SDS011;4768;42.664;23.240;2022-08-04T10:21:00;2.88;;;2.63;;
9459;SDS011;4768;42.664;23.240;2022-08-04T10:23:35;2.50;;;2.03;;
9459;SDS011;4768;42.664;23.240;2022-08-04T10:26:14;3.22;;;2.10;;
9459;SDS011;4768;42.664;23.240;2022-08-04T10:28:52;3.70;;;2.30;;
9459;SDS011;4768;42.664;23.240;2022-08-04T10:31:23;3.63;;;2.00;;
9459;SDS011;4768;42.664;23.240;2022-08-04T10:33:57;3.28;;;2.35;;
9459;SDS011;4768;42.664;23.240;2022-08-04T10:36:29;2.92;;;2.65;;
9459;SDS011;4768;42.664;23.240;2022-08-04T10:39:06;2.42;;;2.22;;
9459;SDS011;4768;42.664;23.240;2022-08-04T10:41:40;2.20;;;2.10;;
9459;SDS011;4768;42.664;23.240;2022-08-04T10:44:13;2.47;;;2.28;;
9459;SDS011;4768;42.664;23.240;2022-08-04T10:46:49;3.67;;;2.33;;
9459;SDS011;4768;42.664;23.240;2022-08-04T10:49:23;3.60;;;2.22;;
9459;SDS011;4768;42.664;23.240;2022-08-04T10:52:02;1.80;;;1.70;;
9459;SDS011;4768;42.664;23.240;2022-08-04T10:54:38;2.58;;;2.38;;
9459;SDS011;4768;42.664;23.240;2022-08-04T10:57:13;4.55;;;1.95;;
9459;SDS011;4768;42.664;23.240;2022-08-04T10:59:46;2.85;;;2.20;;
9459;SDS011;4768;42.664;23.240;2022-08-04T11:02:23;2.15;;;1.90;;
9459;SDS011;4768;42.664;23.240;2022-08-04T11:04:58;2.42;;;2.22;;
9459;SDS011;4768;42.664;23.240;2022-08-04T11:07:32;2.70;;;2.50;;
9459;SDS011;4768;42.664;23.240;2022-08-04T11:10:02;2.78;;;2.45;;
9459;SDS011;4768;42.664;23.240;2022-08-04T11:12:32;2.60;;;2.40;;
9459;SDS011;4768;42.664;23.240;2022-08-04T11:15:01;3.08;;;2.20;;
9459;SDS011;4768;42.664;23.240;2022-08-04T11:17:34;3.25;;;2.33;;
9459;SDS011;4768;42.664;23.240;2022-08-04T11:20:11;3.40;;;2.38;;
9459;SDS011;4768;42.664;23.240;2022-08-04T11:22:43;2.50;;;2.30;;
9459;SDS011;4768;42.664;23.240;2022-08-04T11:25:16;2.70;;;2.50;;
9459;SDS011;4768;42.664;23.240;2022-08-04T11:27:50;2.45;;;2.00;;
9459;SDS011;4768;42.664;23.240;2022-08-04T11:30:29;2.33;;;2.05;;
9459;SDS011;4768;42.664;23.240;2022-08-04T11:33:01;2.40;;;2.20;;
9459;SDS011;4768;42.664;23.240;2022-08-04T11:35:36;2.22;;;2.13;;
9459;SDS011;4768;42.664;23.240;2022-08-04T11:38:10;4.65;;;2.05;;
9459;SDS011;4768;42.664;23.240;2022-08-04T11:40:46;2.35;;;2.10;;
9459;SDS011;4768;42.664;23.240;2022-08-04T11:43:21;3.05;;;1.98;;
9459;SDS011;4768;42.664;23.240;2022-08-04T11:45:52;2.83;;;2.28;;
9459;SDS011;4768;42.664;23.240;2022-08-04T11:48:28;5.57;;;2.03;;
9459;SDS011;4768;42.664;23.240;2022-08-04T11:50:57;1.95;;;1.85;;
9459;SDS011;4768;42.664;23.240;2022-08-04T11:53:31;4.50;;;2.10;;
9459;SDS011;4768;42.664;23.240;2022-08-04T11:56:01;2.58;;;2.38;;
9459;SDS011;4768;42.664;23.240;2022-08-04T11:58:30;2.40;;;2.20;;
9459;SDS011;4768;42.664;23.240;2022-08-04T12:01:00;4.10;;;2.35;;
9459;SDS011;4768;42.664;23.240;2022-08-04T12:03:35;2.58;;;2.38;;
9459;SDS011;4768;42.664;23.240;2022-08-04T12:06:11;2.20;;;2.10;;
9459;SDS011;4768;42.664;23.240;2022-08-04T12:08:50;4.60;;;2.20;;
9459;SDS011;4768;42.664;23.240;2022-08-04T12:11:28;2.50;;;2.30;;
9459;SDS011;4768;42.664;23.240;2022-08-04T12:14:25;2.15;;;2.05;;
9459;SDS011;4768;42.664;23.240;2022-08-04T12:16:57;2.83;;;2.17;;
9459;SDS011;4768;42.664;23.240;2022-08-04T12:19:29;2.20;;;1.92;;
9459;SDS011;4768;42.664;23.240;2022-08-04T12:22:02;2.72;;;2.25;;
9459;SDS011;4768;42.664;23.240;2022-08-04T12:24:36;3.30;;;2.45;;
9459;SDS011;4768;42.664;23.240;2022-08-04T12:27:10;6.97;;;2.20;;
9459;SDS011;4768;42.664;23.240;2022-08-04T12:29:40;3.25;;;2.00;;
9459;SDS011;4768;42.664;23.240;2022-08-04T12:32:15;2.42;;;2.17;;
9459;SDS011;4768;42.664;23.240;2022-08-04T12:34:47;2.65;;;2.45;;
9459;SDS011;4768;42.664;23.240;2022-08-04T12:37:22;2.20;;;2.00;;
9459;SDS011;4768;42.664;23.240;2022-08-04T12:39:57;2.47;;;2.28;;
9459;SDS011;4768;42.664;23.240;2022-08-04T12:42:29;3.35;;;2.10;;
9459;SDS011;4768;42.664;23.240;2022-08-04T12:45:07;2.63;;;2.40;;
9459;SDS011;4768;42.664;23.240;2022-08-04T12:47:36;2.95;;;2.10;;
9459;SDS011;4768;42.664;23.240;2022-08-04T12:50:04;2.55;;;2.05;;
9459;SDS011;4768;42.664;23.240;2022-08-04T12:52:40;2.40;;;2.20;;
9459;SDS011;4768;42.664;23.240;2022-08-04T12:55:09;3.17;;;2.50;;
9459;SDS011;4768;42.664;23.240;2022-08-04T12:57:37;2.75;;;2.55;;
9459;SDS011;4768;42.664;23.240;2022-08-04T13:00:06;2.20;;;2.10;;
9459;SDS011;4768;42.664;23.240;2022-08-04T13:02:36;2.40;;;2.20;;
9459;SDS011;4768;42.664;23.240;2022-08-04T13:05:06;2.40;;;2.20;;
9459;SDS011;4768;42.664;23.240;2022-08-04T13:07:35;2.55;;;2.40;;
9459;SDS011;4768;42.664;23.240;2022-08-04T13:10:05;3.10;;;2.40;;
9459;SDS011;4768;42.664;23.240;2022-08-04T13:12:39;2.70;;;2.50;;
9459;SDS011;4768;42.664;23.240;2022-08-04T13:15:10;3.40;;;3.05;;
9459;SDS011;4768;42.664;23.240;2022-08-04T13:17:44;4.32;;;3.20;;
9459;SDS011;4768;42.664;23.240;2022-08-04T13:20:19;2.95;;;2.70;;
9459;SDS011;4768;42.664;23.240;2022-08-04T13:22:50;3.40;;;3.10;;
9459;SDS011;4768;42.664;23.240;2022-08-04T13:25:26;6.07;;;3.45;;
9459;SDS011;4768;42.664;23.240;2022-08-04T13:27:55;3.00;;;2.72;;
9459;SDS011;4768;42.664;23.240;2022-08-04T13:30:23;3.67;;;3.17;;
9459;SDS011;4768;42.664;23.240;2022-08-04T13:32:52;4.22;;;2.83;;
9459;SDS011;4768;42.664;23.240;2022-08-04T13:35:20;2.75;;;2.55;;
9459;SDS011;4768;42.664;23.240;2022-08-04T13:37:48;2.88;;;2.55;;
9459;SDS011;4768;42.664;23.240;2022-08-04T13:40:16;2.85;;;2.50;;
9459;SDS011;4768;42.664;23.240;2022-08-04T13:42:49;3.60;;;2.53;;
9459;SDS011;4768;42.664;23.240;2022-08-04T13:45:19;4.25;;;3.05;;
9459;SDS011;4768;42.664;23.240;2022-08-04T13:47:47;3.00;;;2.80;;
9459;SDS011;4768;42.664;23.240;2022-08-04T13:50:16;4.55;;;2.60;;
9459;SDS011;4768;42.664;23.240;2022-08-04T13:52:45;2.70;;;2.50;;
9459;SDS011;4768;42.664;23.240;2022-08-04T13:55:18;2.97;;;2.67;;
9459;SDS011;4768;42.664;23.240;2022-08-04T13:57:49;2.70;;;2.45;;
9459;SDS011;4768;42.664;23.240;2022-08-04T14:00:20;2.83;;;2.55;;
9459;SDS011;4768;42.664;23.240;2022-08-04T14:02:48;3.75;;;2.50;;
9459;SDS011;4768;42.664;23.240;2022-08-04T14:05:25;3.33;;;2.22;;
9459;SDS011;4768;42.664;23.240;2022-08-04T14:07:54;3.00;;;2.65;;
9459;SDS011;4768;42.664;23.240;2022-08-04T14:10:25;3.10;;;2.75;;
9459;SDS011;4768;42.664;23.240;2022-08-04T14:12:54;2.40;;;2.25;;
9459;SDS011;4768;42.664;23.240;2022-08-04T14:15:28;2.50;;;2.30;;
9459;SDS011;4768;42.664;23.240;2022-08-04T14:18:01;3.05;;;2.50;;
9459;SDS011;4768;42.664;23.240;2022-08-04T14:20:52;2.88;;;2.58;;
9459;SDS011;4768;42.664;23.240;2022-08-04T14:23:23;2.33;;;2.22;;
9459;SDS011;4768;42.664;23.240;2022-08-04T14:25:51;2.30;;;2.20;;
9459;SDS011;4768;42.664;23.240;2022-08-04T14:28:26;3.47;;;2.25;;
9459;SDS011;4768;42.664;23.240;2022-08-04T14:31:07;3.00;;;2.50;;
9459;SDS011;4768;42.664;23.240;2022-08-04T14:33:36;2.38;;;2.17;;
9459;SDS011;4768;42.664;23.240;2022-08-04T14:36:04;2.10;;;2.00;;
9459;SDS011;4768;42.664;23.240;2022-08-04T14:38:41;3.03;;;2.40;;
9459;SDS011;4768;42.664;23.240;2022-08-04T14:41:10;3.80;;;2.50;;
9459;SDS011;4768;42.664;23.240;2022-08-04T14:43:42;3.28;;;2.70;;
9459;SDS011;4768;42.664;23.240;2022-08-04T14:46:10;2.55;;;2.35;;
9459;SDS011;4768;42.664;23.240;2022-08-04T14:48:38;3.05;;;2.78;;
9459;SDS011;4768;42.664;23.240;2022-08-04T14:51:10;2.90;;;2.70;;
9459;SDS011;4768;42.664;23.240;2022-08-04T14:53:39;5.47;;;2.45;;
9459;SDS011;4768;42.664;23.240;2022-08-04T14:56:05;3.08;;;2.72;;
9459;SDS011;4768;42.664;23.240;2022-08-04T14:58:33;2.85;;;2.65;;
9459;SDS011;4768;42.664;23.240;2022-08-04T15:01:02;4.80;;;2.80;;
9459;SDS011;4768;42.664;23.240;2022-08-04T15:03:30;2.78;;;2.58;;
9459;SDS011;4768;42.664;23.240;2022-08-04T15:05:58;3.35;;;2.97;;
9459;SDS011;4768;42.664;23.240;2022-08-04T15:08:26;2.58;;;2.38;;
9459;SDS011;4768;42.664;23.240;2022-08-04T15:10:53;3.17;;;2.80;;
9459;SDS011;4768;42.664;23.240;2022-08-04T15:13:22;3.90;;;2.55;;
9459;SDS011;4768;42.664;23.240;2022-08-04T15:15:49;2.75;;;2.47;;
9459;SDS011;4768;42.664;23.240;2022-08-04T15:18:18;3.03;;;2.75;;
9459;SDS011;4768;42.664;23.240;2022-08-04T15:20:45;3.97;;;2.85;;
9459;SDS011;4768;42.664;23.240;2022-08-04T15:23:12;2.92;;;2.72;;
9459;SDS011;4768;42.664;23.240;2022-08-04T15:25:41;7.90;;;2.65;;
9459;SDS011;4768;42.664;23.240;2022-08-04T15:28:12;5.82;;;2.70;;
9459;SDS011;4768;42.664;23.240;2022-08-04T15:30:41;2.97;;;2.58;;
9459;SDS011;4768;42.664;23.240;2022-08-04T15:33:11;4.93;;;2.63;;
9459;SDS011;4768;42.664;23.240;2022-08-04T15:35:41;2.95;;;2.60;;
9459;SDS011;4768;42.664;23.240;2022-08-04T15:38:12;2.88;;;2.67;;
9459;SDS011;4768;42.664;23.240;2022-08-04T15:40:50;2.97;;;2.78;;
9459;SDS011;4768;42.664;23.240;2022-08-04T15:43:26;3.50;;;3.05;;
9459;SDS011;4768;42.664;23.240;2022-08-04T15:46:11;3.38;;;3.08;;
9459;SDS011;4768;42.664;23.240;2022-08-04T15:48:38;3.50;;;3.20;;
9459;SDS011;4768;42.664;23.240;2022-08-04T15:51:11;2.97;;;2.72;;
9459;SDS011;4768;42.664;23.240;2022-08-04T15:56:45;2.65;;;2.45;;
9459;SDS011;4768;42.664;23.240;2022-08-04T15:59:14;4.82;;;2.75;;
9459;SDS011;4768;42.664;23.240;2022-08-04T16:01:41;5.50;;;2.60;;
9459;SDS011;4768;42.664;23.240;2022-08-04T16:04:21;2.90;;;2.70;;
9459;SDS011;4768;42.664;23.240;2022-08-04T16:06:51;2.97;;;2.58;;
9459;SDS011;4768;42.664;23.240;2022-08-04T16:09:30;3.28;;;2.97;;
9459;SDS011;4768;42.664;23.240;2022-08-04T16:11:58;2.88;;;2.67;;
9459;SDS011;4768;42.664;23.240;2022-08-04T16:14:31;3.53;;;2.85;;
9459;SDS011;4768;42.664;23.240;2022-08-04T16:17:14;3.90;;;2.28;;
9459;SDS011;4768;42.664;23.240;2022-08-04T16:19:48;2.65;;;2.45;;
9459;SDS011;4768;42.664;23.240;2022-08-04T16:22:32;3.08;;;2.50;;